createdAt,value
2023-04-18T00:01:02.013Z,101127.23
2023-04-18T00:03:30.320Z,101128.23
2023-04-18T00:05:58.316Z,101127.94
2023-04-18T00:08:26.183Z,101125.13
2023-04-18T00:10:54.142Z,101124.95
2023-04-18T00:13:22.169Z,101123.74
2023-04-18T00:15:49.930Z,101127.33
2023-04-18T00:18:17.839Z,101126.24
2023-04-18T00:20:46.467Z,101124.10
2023-04-18T00:23:14.917Z,101127.42
2023-04-18T00:25:42.786Z,101128.83
2023-04-18T00:28:10.800Z,101126.84
2023-04-18T00:30:38.568Z,101128.08
2023-04-18T00:33:06.630Z,101124.70
2023-04-18T00:35:34.850Z,101124.48
2023-04-18T00:38:02.649Z,101125.72
2023-04-18T00:40:30.736Z,101123.33
2023-04-18T00:42:59.541Z,101124.39
2023-04-18T00:45:27.374Z,101120.86
2023-04-18T00:47:58.390Z,101120.05
2023-04-18T00:50:26.417Z,101118.38
2023-04-18T00:52:54.762Z,101115.59
2023-04-18T00:55:22.661Z,101114.79
2023-04-18T00:57:51.444Z,101116.23
2023-04-18T01:00:19.400Z,101113.53
2023-04-18T01:02:50.123Z,101114.66
2023-04-18T01:05:18.790Z,101113.61
2023-04-18T01:07:46.549Z,101114.10
2023-04-18T01:10:14.674Z,101112.31
2023-04-18T01:12:42.382Z,101109.94
2023-04-18T01:15:10.457Z,101113.05
2023-04-18T01:17:38.691Z,101113.13
2023-04-18T01:20:07.168Z,101111.17
2023-04-18T01:22:35.068Z,101109.25
2023-04-18T01:25:07.595Z,101114.02
2023-04-18T01:27:35.421Z,101113.15
2023-04-18T01:30:03.631Z,101113.48
2023-04-18T01:32:31.401Z,101112.83
2023-04-18T01:35:03.537Z,101115.98
2023-04-18T01:37:31.890Z,101111.30
2023-04-18T01:40:00.206Z,101112.54
2023-04-18T01:42:27.928Z,101112.39
2023-04-18T01:44:55.799Z,101113.96
2023-04-18T01:47:23.665Z,101112.73
2023-04-18T01:49:53.017Z,101114.56
2023-04-18T01:52:20.909Z,101111.31
2023-04-18T01:54:49.023Z,101113.83
2023-04-18T01:57:16.853Z,101114.32
2023-04-18T01:59:44.680Z,101110.32
2023-04-18T02:02:12.793Z,101114.32
2023-04-18T02:04:41.111Z,101114.03
2023-04-18T02:07:11.788Z,101113.09
2023-04-18T02:09:39.847Z,101111.23
2023-04-18T02:12:10.797Z,101112.75
2023-04-18T02:14:38.797Z,101104.52
2023-04-18T02:17:06.737Z,101107.85
2023-04-18T02:19:34.799Z,101112.94
2023-04-18T02:22:02.734Z,101113.08
2023-04-18T02:24:30.530Z,101112.55
2023-04-18T02:26:58.446Z,101113.98
2023-04-18T02:29:26.145Z,101112.02
2023-04-18T02:31:54.177Z,101113.77
2023-04-18T02:34:21.882Z,101113.44
2023-04-18T02:36:54.533Z,101111.23
2023-04-18T02:39:22.248Z,101110.10
2023-04-18T02:41:50.246Z,101110.02
2023-04-18T02:44:17.976Z,101112.05
2023-04-18T02:46:46.204Z,101111.46
2023-04-18T02:49:14.335Z,101109.54
2023-04-18T02:51:42.295Z,101113.67
2023-04-18T02:54:10.566Z,101114.35
2023-04-18T02:56:40.246Z,101113.90
2023-04-18T02:59:07.994Z,101113.39
2023-04-18T03:01:36.501Z,101115.06
2023-04-18T03:04:04.532Z,101119.07
2023-04-18T03:06:32.677Z,101114.98
2023-04-18T03:09:00.730Z,101119.00
2023-04-18T03:11:28.664Z,101123.77
2023-04-18T03:13:56.484Z,101123.81
2023-04-18T03:16:24.806Z,101122.59
2023-04-18T03:18:52.541Z,101121.23
2023-04-18T03:21:20.774Z,101117.62
2023-04-18T03:23:48.947Z,101117.15
2023-04-18T03:26:16.879Z,101113.93
2023-04-18T03:28:46.062Z,101110.58
2023-04-18T03:31:13.871Z,101110.42
2023-04-18T03:33:44.375Z,101113.58
2023-04-18T03:36:15.823Z,101111.06
2023-04-18T03:38:44.170Z,101111.59
2023-04-18T03:41:12.190Z,101112.95
2023-04-18T03:43:39.912Z,101114.72
2023-04-18T03:46:07.787Z,101117.32
2023-04-18T03:48:37.381Z,101116.80
2023-04-18T03:51:06.402Z,101114.95
2023-04-18T03:53:34.213Z,101116.02
2023-04-18T03:56:02.036Z,101116.05
2023-04-18T03:58:29.954Z,101119.52
2023-04-18T04:00:57.776Z,101119.70
2023-04-18T04:03:27.989Z,101119.45
2023-04-18T04:05:56.049Z,101122.69
2023-04-18T04:08:28.234Z,101121.23
2023-04-18T04:10:56.329Z,101120.98
2023-04-18T04:13:24.369Z,101121.92
2023-04-18T04:15:52.226Z,101115.34
2023-04-18T04:18:20.592Z,101126.85
2023-04-18T04:20:48.306Z,101129.91
2023-04-18T04:23:16.034Z,101130.87
2023-04-18T04:25:46.459Z,101132.48
2023-04-18T04:28:14.198Z,101132.35
2023-04-18T04:30:42.024Z,101136.45
2023-04-18T04:33:09.754Z,101138.20
2023-04-18T04:35:37.753Z,101136.05
2023-04-18T04:38:05.972Z,101137.66
2023-04-18T04:40:34.014Z,101138.48
2023-04-18T04:43:01.899Z,101144.92
2023-04-18T04:45:29.906Z,101146.52
2023-04-18T04:47:57.833Z,101148.28
2023-04-18T04:50:25.629Z,101147.15
2023-04-18T04:52:53.480Z,101144.84
2023-04-18T04:55:21.415Z,101148.50
2023-04-18T04:57:49.265Z,101149.62
2023-04-18T05:00:20.986Z,101151.14
2023-04-18T05:02:49.458Z,101155.38
2023-04-18T05:05:17.666Z,101155.67
2023-04-18T05:07:45.440Z,101157.21
2023-04-18T05:10:13.302Z,101153.63
2023-04-18T05:12:41.175Z,101160.49
2023-04-18T05:15:09.281Z,101161.22
2023-04-18T05:17:37.314Z,101160.67
2023-04-18T05:20:06.054Z,101157.29
2023-04-18T05:22:34.017Z,101158.05
2023-04-18T05:25:02.718Z,101162.02
2023-04-18T05:27:30.616Z,101162.89
2023-04-18T05:29:58.522Z,101163.98
2023-04-18T05:32:26.379Z,101164.46
2023-04-18T05:34:54.159Z,101164.35
2023-04-18T05:37:22.669Z,101164.46
2023-04-18T05:39:50.493Z,101157.66
2023-04-18T05:42:18.595Z,101172.55
2023-04-18T05:44:46.421Z,101170.08
2023-04-18T05:47:14.272Z,101168.54
2023-04-18T05:49:42.062Z,101172.91
2023-04-18T05:52:09.915Z,101168.59
2023-04-18T05:54:37.644Z,101165.30
2023-04-18T05:57:06.005Z,101170.24
2023-04-18T05:59:33.929Z,101167.29
2023-04-18T06:02:02.174Z,101172.16
2023-04-18T06:04:30.315Z,101171.17
2023-04-18T06:06:58.198Z,101174.44
2023-04-18T06:09:26.816Z,101176.91
2023-04-18T06:11:54.716Z,101178.23
2023-04-18T06:14:22.813Z,101176.22
2023-04-18T06:16:50.835Z,101179.88
2023-04-18T06:19:18.781Z,101180.13
2023-04-18T06:21:49.746Z,101181.19
2023-04-18T06:24:17.813Z,101183.12
2023-04-18T06:26:45.759Z,101191.33
2023-04-18T06:29:13.525Z,101191.80
2023-04-18T06:31:42.427Z,101197.23
2023-04-18T06:34:10.184Z,101196.55
2023-04-18T06:36:38.164Z,101196.33
2023-04-18T06:39:06.065Z,101197.95
2023-04-18T06:41:33.997Z,101198.38
2023-04-18T06:44:03.365Z,101201.08
2023-04-18T06:46:42.883Z,101200.09
2023-04-18T06:49:10.768Z,101202.52
2023-04-18T06:51:38.522Z,101204.82
2023-04-18T06:54:06.301Z,101207.05
2023-04-18T06:56:36.395Z,101209.36
2023-04-18T06:59:04.444Z,101208.41
2023-04-18T07:01:35.506Z,101209.98
2023-04-18T07:04:03.644Z,101213.23
2023-04-18T07:06:31.690Z,101210.45
2023-04-18T07:09:02.197Z,101213.98
2023-04-18T07:11:30.062Z,101214.57
2023-04-18T07:13:57.975Z,101215.88
2023-04-18T07:16:27.470Z,101218.46
2023-04-18T07:18:55.585Z,101218.80
2023-04-18T07:21:24.024Z,101223.36
2023-04-18T07:23:52.069Z,101223.91
2023-04-18T07:26:19.974Z,101226.48
2023-04-18T07:28:47.707Z,101226.45
2023-04-18T07:31:16.772Z,101229.70
2023-04-18T07:33:45.139Z,101225.46
2023-04-18T07:36:13.013Z,101229.98
2023-04-18T07:38:40.754Z,101232.73
2023-04-18T07:41:08.759Z,101234.11
2023-04-18T07:43:36.526Z,101234.00
2023-04-18T07:46:05.488Z,101235.76
2023-04-18T07:48:33.616Z,101237.45
2023-04-18T07:51:01.460Z,101235.65
2023-04-18T07:53:29.465Z,101240.58
2023-04-18T07:55:57.146Z,101241.57
2023-04-18T07:58:24.949Z,101245.17
2023-04-18T08:00:53.028Z,101249.81
2023-04-18T08:03:21.138Z,101248.75
2023-04-18T08:05:50.326Z,101252.88
2023-04-18T08:08:18.275Z,101254.19
2023-04-18T08:10:46.362Z,101254.84
2023-04-18T08:13:14.269Z,101255.54
2023-04-18T08:15:42.676Z,101256.34
2023-04-18T08:18:10.895Z,101256.70
2023-04-18T08:20:41.419Z,101256.91
2023-04-18T08:23:12.211Z,101255.38
2023-04-18T08:25:41.615Z,101257.63
2023-04-18T08:28:09.449Z,101259.02
2023-04-18T08:30:37.438Z,101259.14
2023-04-18T08:33:05.335Z,101262.27
2023-04-18T08:35:34.264Z,101261.14
2023-04-18T08:38:02.760Z,101261.25
2023-04-18T08:40:30.687Z,101267.02
2023-04-18T08:43:01.310Z,101266.07
2023-04-18T08:45:29.707Z,101270.97
2023-04-18T08:48:01.623Z,101269.69
2023-04-18T08:50:29.521Z,101274.33
2023-04-18T08:52:59.807Z,101275.13
2023-04-18T08:55:27.687Z,101277.58
2023-04-18T08:57:56.171Z,101275.92
2023-04-18T09:00:23.981Z,101280.66
2023-04-18T09:02:57.167Z,101280.63
2023-04-18T09:05:27.367Z,101283.63
2023-04-18T09:07:56.312Z,101280.77
2023-04-18T09:10:33.552Z,101280.88
2023-04-18T09:13:05.695Z,101281.02
2023-04-18T09:15:34.693Z,101281.13
2023-04-18T09:18:03.342Z,101276.88
2023-04-18T09:20:41.743Z,101275.81
2023-04-18T09:23:11.619Z,101275.59
2023-04-18T09:25:45.408Z,101278.77
2023-04-18T09:28:27.227Z,101276.32
2023-04-18T09:30:59.437Z,101279.89
2023-04-18T09:33:29.446Z,101274.08
2023-04-18T09:36:20.097Z,101277.98
2023-04-18T09:38:54.632Z,101276.55
2023-04-18T09:41:24.988Z,101281.41
2023-04-18T09:44:12.356Z,101276.41
2023-04-18T09:46:44.484Z,101278.16
2023-04-18T09:49:14.535Z,101280.67
2023-04-18T09:51:43.970Z,101279.52
2023-04-18T09:54:15.501Z,101282.36
2023-04-18T09:56:48.087Z,101281.30
2023-04-18T09:59:18.673Z,101279.85
2023-04-18T10:01:49.907Z,101284.56
2023-04-18T10:04:18.445Z,101280.14
2023-04-18T10:06:47.004Z,101278.71
2023-04-18T10:09:16.339Z,101275.20
2023-04-18T10:11:44.548Z,101275.21
2023-04-18T10:14:13.878Z,101272.77
2023-04-18T10:16:46.075Z,101266.36
2023-04-18T10:19:26.131Z,101272.67
2023-04-18T10:22:01.571Z,101276.14
2023-04-18T10:24:48.733Z,101277.42
2023-04-18T10:27:17.888Z,101272.55
2023-04-18T10:29:52.404Z,101272.05
2023-04-18T10:32:23.454Z,101271.29
2023-04-18T10:34:53.686Z,101267.02
2023-04-18T10:37:21.801Z,101266.05
2023-04-18T10:40:02.827Z,101265.86
2023-04-18T10:42:52.850Z,101262.61
2023-04-18T10:45:22.545Z,101267.52
2023-04-18T10:47:50.937Z,101266.77
2023-04-18T10:50:18.846Z,101267.67
2023-04-18T10:52:46.734Z,101269.44
2023-04-18T10:55:20.851Z,101266.64
2023-04-18T10:57:52.299Z,101260.61
2023-04-18T11:00:21.791Z,101258.56
2023-04-18T11:02:52.509Z,101248.50
2023-04-18T11:05:22.916Z,101254.73
2023-04-18T11:07:51.499Z,101254.60
2023-04-18T11:10:21.037Z,101254.96
2023-04-18T11:12:49.610Z,101254.45
2023-04-18T11:15:23.322Z,101256.05
2023-04-18T11:18:17.434Z,101253.79
2023-04-18T11:20:50.657Z,101251.28
2023-04-18T11:23:22.857Z,101248.88
2023-04-18T11:25:56.676Z,101253.35
2023-04-18T11:28:27.409Z,101248.29
2023-04-18T11:30:59.505Z,101250.27
2023-04-18T11:33:28.742Z,101251.09
2023-04-18T11:36:01.074Z,101244.14
2023-04-18T11:38:33.937Z,101242.65
2023-04-18T11:41:05.103Z,101239.23
2023-04-18T11:43:33.885Z,101251.38
2023-04-18T11:46:02.161Z,101255.45
2023-04-18T11:48:56.849Z,101255.06
2023-04-18T11:51:32.542Z,101254.48
2023-04-18T11:54:00.741Z,101249.31
2023-04-18T11:56:28.563Z,101247.26
2023-04-18T11:58:56.517Z,101246.88
2023-04-18T12:01:25.756Z,101243.10
2023-04-18T12:04:01.635Z,101247.09
2023-04-18T12:06:49.323Z,101247.02
2023-04-18T12:09:17.701Z,101243.73
2023-04-18T12:11:58.555Z,101247.11
2023-04-18T12:14:45.572Z,101249.48
2023-04-18T12:17:13.638Z,101246.89
2023-04-18T12:19:46.991Z,101247.06
2023-04-18T12:22:17.236Z,101247.53
2023-04-18T12:24:45.120Z,101248.23
2023-04-18T12:27:12.955Z,101247.91
2023-04-18T12:29:41.028Z,101246.05
2023-04-18T12:32:08.771Z,101246.07
2023-04-18T12:34:36.515Z,101245.08
2023-04-18T12:37:05.191Z,101242.24
2023-04-18T12:39:32.950Z,101244.47
2023-04-18T12:42:01.104Z,101242.80
2023-04-18T12:44:29.080Z,101249.08
2023-04-18T12:46:57.237Z,101247.40
2023-04-18T12:49:24.995Z,101245.46
2023-04-18T12:51:53.388Z,101243.28
2023-04-18T12:54:21.179Z,101243.46
2023-04-18T12:56:48.881Z,101239.20
2023-04-18T12:59:17.511Z,101239.88
2023-04-18T13:01:45.451Z,101236.55
2023-04-18T13:04:13.670Z,101235.56
2023-04-18T13:06:42.766Z,101230.69
2023-04-18T13:09:11.080Z,101226.77
2023-04-18T13:11:38.850Z,101226.62
2023-04-18T13:14:07.247Z,101223.21
2023-04-18T13:16:35.056Z,101223.73
2023-04-18T13:19:02.897Z,101221.94
2023-04-18T13:21:31.546Z,101225.00
2023-04-18T13:23:59.319Z,101225.27
2023-04-18T13:26:27.431Z,101223.03
2023-04-18T13:28:55.709Z,101226.13
2023-04-18T13:31:23.645Z,101220.71
2023-04-18T13:33:51.950Z,101221.74
2023-04-18T13:36:20.201Z,101220.23
2023-04-18T13:38:48.584Z,101224.36
2023-04-18T13:41:16.382Z,101227.07
2023-04-18T13:43:44.224Z,101223.23
2023-04-18T13:46:12.210Z,101224.02
2023-04-18T13:48:40.076Z,101223.96
2023-04-18T13:51:08.202Z,101223.21
2023-04-18T13:53:36.128Z,101225.36
2023-04-18T13:56:04.039Z,101221.13
2023-04-18T13:58:32.232Z,101220.39
2023-04-18T14:01:00.216Z,101219.31
2023-04-18T14:03:28.931Z,101219.05
2023-04-18T14:05:59.606Z,101220.11
2023-04-18T14:08:27.323Z,101216.55
2023-04-18T14:10:55.547Z,101218.70
2023-04-18T14:13:23.597Z,101218.35
2023-04-18T14:15:53.129Z,101219.75
2023-04-18T14:18:21.903Z,101217.36
2023-04-18T14:20:49.833Z,101217.77
2023-04-18T14:23:18.085Z,101217.62
2023-04-18T14:25:46.260Z,101217.63
2023-04-18T14:28:14.416Z,101220.61
2023-04-18T14:30:42.265Z,101215.91
2023-04-18T14:33:10.290Z,101217.89
2023-04-18T14:35:38.486Z,101218.59
2023-04-18T14:38:06.504Z,101215.56
2023-04-18T14:40:34.585Z,101214.08
2023-04-18T14:43:02.675Z,101215.31
2023-04-18T14:45:34.283Z,101217.31
2023-04-18T14:48:02.499Z,101212.25
2023-04-18T14:50:31.147Z,101210.44
2023-04-18T14:52:59.108Z,101205.85
2023-04-18T14:55:26.921Z,101199.39
2023-04-18T14:57:54.929Z,101200.18
2023-04-18T15:00:22.900Z,101199.81
2023-04-18T15:02:50.919Z,101198.89
2023-04-18T15:05:20.347Z,101197.81
2023-04-18T15:07:48.365Z,101196.94
2023-04-18T15:10:16.360Z,101196.09
2023-04-18T15:12:46.956Z,101194.16
2023-04-18T15:15:15.038Z,101197.88
2023-04-18T15:17:42.951Z,101195.32
2023-04-18T15:20:11.024Z,101202.05
2023-04-18T15:22:39.115Z,101201.42
2023-04-18T15:25:07.608Z,101201.39
2023-04-18T15:27:35.591Z,101201.92
2023-04-18T15:30:03.924Z,101196.46
2023-04-18T15:32:32.883Z,101200.60
2023-04-18T15:35:01.081Z,101200.45
2023-04-18T15:37:28.962Z,101201.40
2023-04-18T15:39:57.226Z,101202.45
2023-04-18T15:42:25.487Z,101202.60
2023-04-18T15:44:53.251Z,101205.58
2023-04-18T15:47:21.488Z,101204.75
2023-04-18T15:49:49.299Z,101204.17
2023-04-18T15:52:17.178Z,101201.84
2023-04-18T15:54:45.191Z,101198.15
2023-04-18T15:57:13.050Z,101198.75
2023-04-18T15:59:40.874Z,101200.06
2023-04-18T16:02:09.058Z,101199.98
2023-04-18T16:04:37.138Z,101203.11
2023-04-18T16:07:05.146Z,101202.40
2023-04-18T16:09:33.288Z,101203.45
2023-04-18T16:12:03.343Z,101208.64
2023-04-18T16:14:31.797Z,101205.02
2023-04-18T16:16:59.823Z,101205.94
2023-04-18T16:19:28.096Z,101205.71
2023-04-18T16:21:55.955Z,101204.80
2023-04-18T16:24:25.812Z,101202.16
2023-04-18T16:26:55.622Z,101201.73
2023-04-18T16:29:23.993Z,101197.43
2023-04-18T16:31:51.992Z,101196.98
2023-04-18T16:34:20.067Z,101200.54
2023-04-18T16:36:50.738Z,101197.45
2023-04-18T16:39:19.448Z,101196.39
2023-04-18T16:41:47.569Z,101201.14
2023-04-18T16:44:15.561Z,101197.23
2023-04-18T16:46:43.831Z,101200.49
2023-04-18T16:49:12.215Z,101198.14
2023-04-18T16:51:40.708Z,101198.66
2023-04-18T16:54:08.839Z,101197.47
2023-04-18T16:56:36.763Z,101205.19
2023-04-18T16:59:05.279Z,101202.16
2023-04-18T17:01:34.072Z,101197.66
2023-04-18T17:04:02.610Z,101202.10
2023-04-18T17:06:31.570Z,101199.23
2023-04-18T17:08:59.929Z,101200.72
2023-04-18T17:11:28.318Z,101202.48
2023-04-18T17:13:56.404Z,101198.49
2023-04-18T17:16:24.675Z,101199.89
2023-04-18T17:18:52.717Z,101202.19
2023-04-18T17:21:20.632Z,101203.04
2023-04-18T17:23:48.730Z,101204.69
2023-04-18T17:26:16.946Z,101206.24
2023-04-18T17:28:45.024Z,101206.60
2023-04-18T17:31:16.240Z,101208.05
2023-04-18T17:33:44.844Z,101205.67
2023-04-18T17:36:12.949Z,101209.48
2023-04-18T17:38:40.789Z,101211.27
2023-04-18T17:41:09.005Z,101211.08
2023-04-18T17:43:37.001Z,101208.18
2023-04-18T17:46:05.178Z,101211.94
2023-04-18T17:48:33.258Z,101208.90
2023-04-18T17:51:01.381Z,101210.00
2023-04-18T17:53:32.030Z,101210.00
2023-04-18T17:56:00.503Z,101209.89
2023-04-18T17:58:28.529Z,101210.65
2023-04-18T18:00:56.654Z,101210.78
2023-04-18T18:03:24.887Z,101206.58
2023-04-18T18:05:55.134Z,101212.88
2023-04-18T18:08:23.248Z,101212.98
2023-04-18T18:10:51.690Z,101216.77
2023-04-18T18:13:19.677Z,101217.11
2023-04-18T18:15:47.841Z,101215.71
2023-04-18T18:18:15.867Z,101215.56
2023-04-18T18:20:43.898Z,101217.19
2023-04-18T18:23:11.839Z,101214.63
2023-04-18T18:25:40.406Z,101219.69
2023-04-18T18:28:08.467Z,101217.41
2023-04-18T18:30:38.281Z,101220.73
2023-04-18T18:33:06.408Z,101215.86
2023-04-18T18:35:35.172Z,101216.39
2023-04-18T18:38:03.090Z,101215.27
2023-04-18T18:40:31.380Z,101218.23
2023-04-18T18:42:59.616Z,101216.01
2023-04-18T18:45:27.550Z,101215.16
2023-04-18T18:47:56.124Z,101212.83
2023-04-18T18:50:24.046Z,101211.59
2023-04-18T18:52:51.943Z,101213.88
2023-04-18T18:55:20.527Z,101215.88
2023-04-18T18:57:48.423Z,101208.86
2023-04-18T19:00:16.884Z,101209.71
2023-04-18T19:02:45.665Z,101209.34
2023-04-18T19:05:13.711Z,101208.25
2023-04-18T19:07:44.262Z,101208.02
2023-04-18T19:10:12.282Z,101201.95
2023-04-18T19:12:40.230Z,101205.10
2023-04-18T19:15:08.701Z,101205.48
2023-04-18T19:17:36.848Z,101204.21
2023-04-18T19:20:05.360Z,101206.08
2023-04-18T19:22:33.196Z,101205.11
2023-04-18T19:25:01.659Z,101203.61
2023-04-18T19:27:30.809Z,101203.92
2023-04-18T19:29:58.662Z,101202.46
2023-04-18T19:32:27.293Z,101204.45
2023-04-18T19:34:55.325Z,101201.52
2023-04-18T19:37:23.160Z,101197.94
2023-04-18T19:39:51.353Z,101198.75
2023-04-18T19:42:19.198Z,101201.50
2023-04-18T19:44:46.979Z,101196.98
2023-04-18T19:47:15.809Z,101196.89
2023-04-18T19:49:44.517Z,101193.62
2023-04-18T19:52:12.338Z,101192.92
2023-04-18T19:54:40.516Z,101194.94
2023-04-18T19:57:08.570Z,101191.15
2023-04-18T19:59:36.629Z,101190.41
2023-04-18T20:02:06.317Z,101191.39
2023-04-18T20:04:36.920Z,101189.34
2023-04-18T20:07:04.997Z,101189.53
2023-04-18T20:09:33.004Z,101185.59
2023-04-18T20:12:01.976Z,101185.06
2023-04-18T20:14:30.534Z,101186.25
2023-04-18T20:17:00.632Z,101182.48
2023-04-18T20:19:29.927Z,101185.22
2023-04-18T20:21:57.928Z,101182.84
2023-04-18T20:24:28.368Z,101179.73
2023-04-18T20:26:59.104Z,101180.07
2023-04-18T20:29:27.741Z,101177.64
2023-04-18T20:31:56.148Z,101176.48
2023-04-18T20:34:24.028Z,101171.98
2023-04-18T20:36:52.697Z,101174.65
2023-04-18T20:39:20.826Z,101175.79
2023-04-18T20:41:51.622Z,101173.11
2023-04-18T20:44:21.200Z,101172.84
2023-04-18T20:46:49.014Z,101176.98
2023-04-18T20:49:17.043Z,101174.95
2023-04-18T20:51:45.522Z,101168.83
2023-04-18T20:54:13.744Z,101171.19
2023-04-18T20:56:41.747Z,101168.02
2023-04-18T20:59:09.843Z,101163.79
2023-04-18T21:01:37.735Z,101166.03
2023-04-18T21:04:05.624Z,101161.95
2023-04-18T21:06:33.586Z,101161.42
2023-04-18T21:09:01.634Z,101160.33
2023-04-18T21:11:29.586Z,101155.59
2023-04-18T21:13:57.583Z,101152.94
2023-04-18T21:16:26.117Z,101146.39
2023-04-18T21:18:55.255Z,101149.77
2023-04-18T21:21:23.158Z,101146.23
2023-04-18T21:23:51.229Z,101149.59
2023-04-18T21:26:19.017Z,101147.80
2023-04-18T21:28:54.767Z,101142.09
2023-04-18T21:31:22.814Z,101142.18
2023-04-18T21:33:55.387Z,101143.30
2023-04-18T21:36:24.833Z,101138.48
2023-04-18T21:38:54.012Z,101139.63
2023-04-18T21:41:22.435Z,101136.87
2023-04-18T21:43:50.685Z,101135.24
2023-04-18T21:46:18.940Z,101136.59
2023-04-18T21:48:47.765Z,101137.30
2023-04-18T21:51:16.939Z,101127.77
2023-04-18T21:53:44.864Z,101132.16
2023-04-18T21:56:12.850Z,101133.89
2023-04-18T21:58:40.624Z,101130.14
2023-04-18T22:01:08.466Z,101129.14
2023-04-18T22:03:37.315Z,101131.01
2023-04-18T22:06:05.990Z,101128.06
2023-04-18T22:08:33.897Z,101128.39
2023-04-18T22:11:01.778Z,101122.98
2023-04-18T22:13:35.888Z,101114.59
2023-04-18T22:16:04.016Z,101113.04
2023-04-18T22:18:37.943Z,101108.27
2023-04-18T22:21:06.835Z,101105.73
2023-04-18T22:23:34.641Z,101104.23
2023-04-18T22:26:02.328Z,101104.02
2023-04-18T22:28:30.531Z,101102.58
2023-04-18T22:30:58.495Z,101101.80
2023-04-18T22:33:26.414Z,101101.14
2023-04-18T22:35:55.960Z,101099.73
2023-04-18T22:38:25.399Z,101099.21
2023-04-18T22:40:53.223Z,101101.02
2023-04-18T22:43:23.944Z,101097.87
2023-04-18T22:45:54.550Z,101094.31
2023-04-18T22:48:22.584Z,101088.41
2023-04-18T22:50:50.409Z,101086.17
2023-04-18T22:53:18.176Z,101076.83
2023-04-18T22:55:46.811Z,101080.24
2023-04-18T22:58:14.792Z,101077.73
2023-04-18T23:00:42.762Z,101077.99
2023-04-18T23:03:10.986Z,101074.92
2023-04-18T23:05:39.101Z,101070.02
2023-04-18T23:08:07.141Z,101070.55
2023-04-18T23:10:35.269Z,101063.98
2023-04-18T23:13:03.084Z,101061.95
2023-04-18T23:15:31.304Z,101066.07
2023-04-18T23:17:59.255Z,101062.58
2023-04-18T23:20:27.142Z,101061.21
2023-04-18T23:22:56.048Z,101055.52
2023-04-18T23:25:24.082Z,101052.33
2023-04-18T23:27:51.858Z,101048.95
2023-04-18T23:30:19.612Z,101044.62
2023-04-18T23:32:47.601Z,101044.77
2023-04-18T23:35:15.552Z,101041.50
2023-04-18T23:37:43.824Z,101035.31
2023-04-18T23:40:11.840Z,101036.36
2023-04-18T23:42:39.664Z,101033.84
2023-04-18T23:45:07.805Z,101030.92
2023-04-18T23:47:35.786Z,101023.98
2023-04-18T23:50:03.987Z,101027.23
2023-04-18T23:52:31.837Z,101025.52
2023-04-18T23:55:00.825Z,101024.73
2023-04-18T23:57:28.937Z,101021.83
2023-04-18T23:59:56.690Z,101021.94
